Aviation Digital Data Service (ADDS)

Output produced by METARs form (1212 UTC 24 March 2017)
found at http://www.aviationweather.gov/adds/metars/
 
METAR text: KSLO 241155Z AUTO 17007KT 10SM CLR 16/11 A3002 RMK AO2 70007 T01560105 10160 20110
Conditions at: KSLO (SALEM/LECKRONE , IL, US) observed 1155 UTC 24 March 2017
Temperature: 15.6°C (60°F)
Dewpoint: 10.5°C (51°F) [RH = 72%]
Pressure (altimeter): 30.02 inches Hg (1016.7 mb)
Winds: from the S (170 degrees) at 8 MPH (7 knots; 3.6 m/s)
Visibility: 10 or more miles (16+ km)
Ceiling: at least 12,000 feet AGL
Clouds: sky clear below 12,000 feet AGL
Weather: automated observation with no human augmentation;
there may or may not be significant weather present at this time